createdAt,value
2023-03-17T00:01:47.069Z,37.30
2023-03-17T00:03:49.187Z,37.30
2023-03-17T00:05:51.183Z,37.30
2023-03-17T00:07:53.636Z,37.30
2023-03-17T00:09:55.477Z,37.30
2023-03-17T00:11:57.326Z,37.30
2023-03-17T00:13:59.177Z,37.30
2023-03-17T00:16:02.592Z,37.30
2023-03-17T00:18:04.449Z,37.30
2023-03-17T00:22:32.697Z,37.30
2023-03-17T00:24:34.484Z,37.30
2023-03-17T00:26:36.329Z,37.30
2023-03-17T00:28:38.150Z,37.50
2023-03-17T00:30:39.966Z,37.40
2023-03-17T00:32:42.285Z,37.90
2023-03-17T00:34:44.647Z,37.30
2023-03-17T00:36:47.882Z,37.40
2023-03-17T00:38:50.133Z,37.40
2023-03-17T00:40:52.382Z,37.30
2023-03-17T00:42:57.768Z,37.30
2023-03-17T00:44:59.582Z,37.40
2023-03-17T00:47:02.561Z,37.60
2023-03-17T00:49:12.347Z,37.40
2023-03-17T00:51:15.518Z,37.30
2023-03-17T00:53:18.798Z,37.40
2023-03-17T00:55:21.090Z,37.30
2023-03-17T00:57:22.910Z,37.40
2023-03-17T00:59:27.392Z,37.30
2023-03-17T01:01:29.433Z,37.30
2023-03-17T01:03:31.465Z,37.40
2023-03-17T01:05:33.220Z,37.50
2023-03-17T01:07:36.731Z,37.50
2023-03-17T01:09:38.588Z,37.30
2023-03-17T01:11:40.446Z,37.40
2023-03-17T01:13:43.137Z,37.40
2023-03-17T01:15:46.294Z,37.50
2023-03-17T01:17:48.936Z,37.50
2023-03-17T01:19:50.704Z,37.50
2023-03-17T01:21:52.566Z,37.50
2023-03-17T01:23:54.358Z,37.50
2023-03-17T01:25:56.215Z,37.40
2023-03-17T01:27:58.537Z,37.50
2023-03-17T01:30:00.375Z,37.50
2023-03-17T01:32:02.405Z,37.40
2023-03-17T01:34:04.204Z,37.40
2023-03-17T01:36:06.303Z,37.40
2023-03-17T01:38:08.164Z,37.50
2023-03-17T01:40:13.397Z,37.50
2023-03-17T01:42:15.388Z,37.60
2023-03-17T01:44:18.514Z,37.60
2023-03-17T01:46:23.497Z,37.60
2023-03-17T01:48:26.433Z,37.60
2023-03-17T01:50:28.894Z,37.50
2023-03-17T01:52:30.885Z,37.50
2023-03-17T01:54:38.517Z,37.50
2023-03-17T01:56:41.849Z,37.60
2023-03-17T01:58:44.677Z,37.60
2023-03-17T02:00:46.548Z,37.50
2023-03-17T02:02:50.141Z,38.00
2023-03-17T02:04:52.311Z,37.60
2023-03-17T02:06:58.572Z,37.40
2023-03-17T02:09:00.887Z,37.60
2023-03-17T02:11:03.370Z,37.50
2023-03-17T02:13:05.596Z,37.50
2023-03-17T02:15:08.103Z,37.50
2023-03-17T02:17:10.127Z,37.50
2023-03-17T02:19:11.926Z,37.70
2023-03-17T02:21:32.311Z,37.70
2023-03-17T02:23:34.098Z,37.40
2023-03-17T02:25:36.377Z,37.50
2023-03-17T02:27:41.889Z,37.50
2023-03-17T02:29:44.456Z,37.50
2023-03-17T02:31:46.217Z,37.40
2023-03-17T02:33:49.278Z,37.50
2023-03-17T02:35:51.084Z,37.50
2023-03-17T02:37:52.946Z,37.50
2023-03-17T02:39:55.630Z,37.50
2023-03-17T02:41:57.548Z,37.50
2023-03-17T02:43:59.393Z,37.50
2023-03-17T02:46:01.347Z,37.50
2023-03-17T02:48:03.892Z,37.50
2023-03-17T02:50:06.176Z,37.50
2023-03-17T02:52:08.402Z,37.70
2023-03-17T02:54:10.254Z,37.70
2023-03-17T02:56:12.109Z,37.50
2023-03-17T02:58:13.853Z,37.50
2023-03-17T03:00:15.856Z,37.60
2023-03-17T03:02:17.677Z,37.50
2023-03-17T03:04:19.880Z,37.60
2023-03-17T03:06:21.672Z,37.50
2023-03-17T03:08:24.029Z,37.70
2023-03-17T03:10:25.870Z,37.50
2023-03-17T03:12:27.896Z,37.40
2023-03-17T03:14:29.650Z,37.70
2023-03-17T03:16:32.026Z,37.70
2023-03-17T03:18:33.884Z,37.70
2023-03-17T03:20:35.704Z,37.80
2023-03-17T03:22:37.489Z,37.50
2023-03-17T03:24:39.314Z,37.70
2023-03-17T03:26:41.144Z,37.60
2023-03-17T03:28:43.220Z,37.80
2023-03-17T03:30:45.187Z,37.60
2023-03-17T03:32:47.049Z,37.80
2023-03-17T03:34:48.914Z,37.70
2023-03-17T03:36:50.708Z,37.70
2023-03-17T03:38:52.520Z,37.60
2023-03-17T03:40:54.521Z,37.60
2023-03-17T03:42:56.259Z,37.70
2023-03-17T03:44:58.143Z,37.70
2023-03-17T03:46:59.934Z,37.70
2023-03-17T03:49:01.749Z,37.80
2023-03-17T03:51:03.785Z,37.60
2023-03-17T03:53:05.591Z,37.70
2023-03-17T03:55:07.883Z,37.80
2023-03-17T03:57:09.670Z,37.80
2023-03-17T03:59:11.528Z,37.70
2023-03-17T04:01:13.398Z,37.70
2023-03-17T04:03:15.274Z,37.70
2023-03-17T04:05:17.688Z,37.90
2023-03-17T04:07:19.672Z,37.70
2023-03-17T04:09:21.442Z,37.80
2023-03-17T04:11:23.259Z,37.70
2023-03-17T04:13:25.046Z,37.80
2023-03-17T04:15:26.877Z,37.70
2023-03-17T04:17:28.692Z,37.80
2023-03-17T04:19:30.591Z,37.70
2023-03-17T04:21:32.538Z,38.00
2023-03-17T04:23:34.450Z,37.90
2023-03-17T04:25:36.198Z,37.90
2023-03-17T04:27:37.993Z,37.80
2023-03-17T04:29:39.886Z,37.80
2023-03-17T04:31:42.131Z,37.80
2023-03-17T04:33:43.946Z,37.70
2023-03-17T04:35:45.870Z,37.90
2023-03-17T04:37:48.235Z,38.00
2023-03-17T04:39:50.197Z,37.90
2023-03-17T04:41:51.987Z,37.80
2023-03-17T04:43:53.781Z,37.90
2023-03-17T04:45:55.630Z,37.80
2023-03-17T04:47:57.440Z,37.80
2023-03-17T04:49:59.244Z,37.70
2023-03-17T04:52:01.152Z,37.90
2023-03-17T04:54:03.047Z,37.90
2023-03-17T04:56:05.033Z,37.90
2023-03-17T04:58:06.800Z,38.10
2023-03-17T05:00:08.962Z,38.50
2023-03-17T05:02:10.974Z,37.90
2023-03-17T05:04:16.780Z,37.70
2023-03-17T05:06:27.433Z,37.70
2023-03-17T05:08:29.432Z,37.80
2023-03-17T05:10:31.365Z,37.70
2023-03-17T05:12:33.412Z,37.70
2023-03-17T05:14:35.600Z,37.90
2023-03-17T05:16:37.536Z,37.90
2023-03-17T05:18:39.511Z,38.00
2023-03-17T05:20:41.326Z,37.80
2023-03-17T05:22:43.129Z,37.80
2023-03-17T05:24:44.978Z,37.90
2023-03-17T05:26:46.775Z,37.90
2023-03-17T05:28:48.617Z,38.40
2023-03-17T05:30:50.509Z,37.80
2023-03-17T05:32:52.471Z,37.90
2023-03-17T05:34:54.275Z,38.00
2023-03-17T05:36:56.106Z,37.70
2023-03-17T05:38:58.322Z,37.70
2023-03-17T05:41:00.177Z,37.90
2023-03-17T05:43:02.333Z,38.00
2023-03-17T05:45:04.766Z,37.80
2023-03-17T05:47:06.599Z,38.00
2023-03-17T05:49:08.457Z,37.80
2023-03-17T05:51:10.249Z,38.20
2023-03-17T05:53:12.054Z,37.80
2023-03-17T05:55:14.160Z,37.90
2023-03-17T05:57:15.975Z,38.00
2023-03-17T05:59:17.873Z,38.00
2023-03-17T06:01:19.652Z,37.90
2023-03-17T06:03:21.529Z,37.90
2023-03-17T06:05:23.368Z,38.00
2023-03-17T06:07:26.306Z,38.20
2023-03-17T06:09:28.165Z,37.90
2023-03-17T06:11:29.960Z,38.00
2023-03-17T06:13:31.805Z,38.00
2023-03-17T06:15:34.385Z,37.90
2023-03-17T06:17:36.543Z,37.90
2023-03-17T06:19:38.453Z,38.00
2023-03-17T06:21:40.343Z,38.10
2023-03-17T06:23:42.158Z,38.40
2023-03-17T06:25:43.986Z,37.90
2023-03-17T06:27:45.995Z,38.00
2023-03-17T06:29:47.825Z,38.10
2023-03-17T06:31:49.655Z,38.20
2023-03-17T06:33:51.439Z,38.20
2023-03-17T06:35:53.326Z,37.90
2023-03-17T06:37:55.336Z,38.20
2023-03-17T06:39:57.136Z,38.50
2023-03-17T06:41:58.950Z,38.00
2023-03-17T06:44:00.747Z,38.10
2023-03-17T06:46:02.608Z,38.20
2023-03-17T06:48:04.601Z,38.30
2023-03-17T06:50:07.634Z,37.90
2023-03-17T06:52:09.490Z,38.40
2023-03-17T06:54:11.275Z,38.20
2023-03-17T06:56:28.816Z,38.40
2023-03-17T06:58:31.782Z,38.20
2023-03-17T07:00:33.625Z,38.50
2023-03-17T07:02:35.454Z,38.30
2023-03-17T07:04:37.612Z,38.60
2023-03-17T07:06:39.444Z,38.20
2023-03-17T07:08:41.312Z,38.10
2023-03-17T07:10:43.205Z,38.40
2023-03-17T07:12:45.455Z,38.70
2023-03-17T07:14:47.505Z,38.20
2023-03-17T07:16:49.358Z,38.20
2023-03-17T07:18:51.243Z,38.40
2023-03-17T07:20:53.023Z,38.70
2023-03-17T07:22:54.861Z,38.60
2023-03-17T07:24:56.664Z,38.60
2023-03-17T07:26:58.571Z,38.50
2023-03-17T07:29:00.326Z,38.40
2023-03-17T07:31:02.334Z,38.60
2023-03-17T07:33:04.556Z,38.50
2023-03-17T07:35:06.442Z,38.60
2023-03-17T07:37:08.408Z,38.40
2023-03-17T07:39:12.007Z,38.40
2023-03-17T07:41:14.010Z,38.50
2023-03-17T07:43:16.356Z,38.40
2023-03-17T07:45:18.211Z,38.20
2023-03-17T07:47:20.032Z,38.40
2023-03-17T07:49:38.053Z,38.50
2023-03-17T07:51:42.417Z,38.10
2023-03-17T07:53:44.286Z,38.20
2023-03-17T07:55:46.182Z,38.20
2023-03-17T07:57:48.034Z,38.30
2023-03-17T07:59:49.902Z,38.20
2023-03-17T08:01:51.800Z,38.80
2023-03-17T08:03:54.059Z,38.10
2023-03-17T08:05:56.039Z,38.10
2023-03-17T08:07:57.798Z,38.20
2023-03-17T08:09:59.705Z,38.20
2023-03-17T08:12:01.533Z,38.20
2023-03-17T08:14:04.026Z,38.20
2023-03-17T08:16:05.989Z,38.20
2023-03-17T08:18:07.947Z,38.20
2023-03-17T08:20:10.210Z,38.30
2023-03-17T08:22:11.965Z,38.20
2023-03-17T08:24:13.973Z,38.60
2023-03-17T08:26:15.857Z,38.90
2023-03-17T08:28:17.740Z,38.30
2023-03-17T08:30:19.940Z,37.80
2023-03-17T08:32:22.212Z,37.30
2023-03-17T08:34:24.122Z,36.70
2023-03-17T08:36:26.114Z,36.90
2023-03-17T08:38:27.930Z,37.20
2023-03-17T08:40:30.215Z,36.70
2023-03-17T08:42:32.188Z,36.70
2023-03-17T08:44:34.148Z,36.70
2023-03-17T08:46:36.622Z,36.80
2023-03-17T08:48:38.464Z,37.20
2023-03-17T08:50:40.225Z,36.40
2023-03-17T08:52:42.063Z,36.40
2023-03-17T08:54:44.001Z,36.20
2023-03-17T08:56:45.852Z,36.50
2023-03-17T08:58:47.902Z,36.50
2023-03-17T09:00:49.938Z,36.10
2023-03-17T09:02:51.867Z,36.20
2023-03-17T09:07:03.233Z,36.40
2023-03-17T09:09:05.936Z,36.60
2023-03-17T09:11:08.012Z,36.70
2023-03-17T09:13:09.816Z,37.20
2023-03-17T09:15:12.154Z,37.10
2023-03-17T09:17:13.942Z,36.80
2023-03-17T09:19:15.757Z,36.30
2023-03-17T09:21:17.546Z,36.10
2023-03-17T09:23:19.422Z,36.50
2023-03-17T09:25:21.180Z,36.30
2023-03-17T09:27:23.021Z,36.00
2023-03-17T09:29:24.859Z,35.90
2023-03-17T09:31:26.789Z,35.90
2023-03-17T09:33:28.810Z,36.00
2023-03-17T09:35:30.744Z,35.90
2023-03-17T09:37:32.827Z,36.00
2023-03-17T09:39:34.653Z,36.00
2023-03-17T09:42:11.817Z,36.20
2023-03-17T09:44:28.406Z,36.10
2023-03-17T09:46:48.854Z,36.30
2023-03-17T09:48:57.686Z,36.50
2023-03-17T09:51:02.302Z,36.50
2023-03-17T09:53:04.958Z,38.60
2023-03-17T09:55:07.517Z,44.30
2023-03-17T09:57:27.000Z,36.90
2023-03-17T09:59:30.506Z,38.00
2023-03-17T10:03:34.729Z,43.10
2023-03-17T10:05:36.983Z,39.30
2023-03-17T10:07:47.933Z,36.50
2023-03-17T10:10:01.460Z,36.70
2023-03-17T10:12:14.028Z,40.00
2023-03-17T10:14:21.853Z,41.20
2023-03-17T10:16:26.812Z,40.20
2023-03-17T10:18:37.026Z,39.10
2023-03-17T10:20:44.589Z,38.80
2023-03-17T10:22:51.397Z,41.30
2023-03-17T10:24:56.220Z,37.60
2023-03-17T10:26:59.408Z,37.00
2023-03-17T10:29:05.017Z,37.10
2023-03-17T10:31:14.154Z,36.40
2023-03-17T10:33:15.971Z,36.60
2023-03-17T10:35:18.589Z,36.50
2023-03-17T10:37:22.606Z,36.70
2023-03-17T10:39:24.599Z,36.60
2023-03-17T10:41:27.626Z,36.40
2023-03-17T10:43:30.569Z,36.50
2023-03-17T10:45:33.994Z,36.70
2023-03-17T10:47:39.532Z,40.70
2023-03-17T10:51:45.885Z,36.50
2023-03-17T10:53:52.531Z,37.30
2023-03-17T10:55:58.756Z,37.10
2023-03-17T10:58:02.723Z,37.20
2023-03-17T11:00:11.432Z,37.20
2023-03-17T11:02:19.050Z,37.20
2023-03-17T11:04:23.773Z,37.40
2023-03-17T11:06:33.529Z,37.40
2023-03-17T11:08:39.814Z,37.30
2023-03-17T11:12:44.003Z,36.80
2023-03-17T11:14:47.668Z,37.20
2023-03-17T11:16:55.357Z,37.30
2023-03-17T11:18:59.733Z,37.40
2023-03-17T11:21:26.661Z,37.30
2023-03-17T11:23:34.319Z,37.30
2023-03-17T11:25:39.066Z,37.10
2023-03-17T11:27:43.766Z,37.40
2023-03-17T11:29:58.589Z,37.30
2023-03-17T11:32:00.473Z,37.80
2023-03-17T11:34:02.378Z,37.20
2023-03-17T11:36:07.094Z,37.30
2023-03-17T11:38:29.275Z,37.30
2023-03-17T11:40:35.758Z,37.20
2023-03-17T11:42:43.161Z,37.50
2023-03-17T11:44:50.806Z,37.10
2023-03-17T11:46:58.769Z,37.70
2023-03-17T11:49:17.932Z,37.60
2023-03-17T11:51:28.699Z,37.40
2023-03-17T11:53:46.820Z,37.30
2023-03-17T11:55:55.034Z,37.50
2023-03-17T11:57:58.775Z,38.10
2023-03-17T12:00:06.026Z,37.50
2023-03-17T12:02:28.251Z,37.30
2023-03-17T12:04:32.704Z,37.30
2023-03-17T12:06:36.657Z,37.30
2023-03-17T12:08:44.386Z,37.50
2023-03-17T12:10:48.088Z,37.40
2023-03-17T12:13:01.826Z,37.30
2023-03-17T12:15:05.206Z,37.60
2023-03-17T12:17:36.309Z,37.40
2023-03-17T12:19:38.098Z,37.40
2023-03-17T12:21:46.224Z,37.40
2023-03-17T12:23:55.033Z,37.40
2023-03-17T12:26:17.870Z,37.40
2023-03-17T12:28:25.764Z,37.40
2023-03-17T12:30:30.785Z,37.70
2023-03-17T12:32:49.518Z,37.70
2023-03-17T12:34:58.816Z,37.90
2023-03-17T12:37:00.696Z,38.00
2023-03-17T12:43:25.801Z,37.80
2023-03-17T12:45:46.507Z,38.00
2023-03-17T12:48:00.548Z,37.80
2023-03-17T12:50:08.661Z,37.70
2023-03-17T12:52:10.500Z,38.00
2023-03-17T12:54:14.067Z,38.00
2023-03-17T12:56:24.549Z,37.80
2023-03-17T12:58:26.572Z,37.90
2023-03-17T13:00:33.629Z,37.90
2023-03-17T13:02:37.303Z,37.90
2023-03-17T13:04:39.170Z,37.90
2023-03-17T13:06:43.193Z,37.90
2023-03-17T13:08:44.988Z,38.10
2023-03-17T13:10:46.858Z,38.20
2023-03-17T13:12:48.622Z,38.20
2023-03-17T13:14:51.918Z,38.20
2023-03-17T13:17:25.616Z,38.30
2023-03-17T13:19:31.723Z,38.40
2023-03-17T13:21:36.287Z,38.30
2023-03-17T13:23:41.448Z,38.10
2023-03-17T13:25:43.306Z,38.10
2023-03-17T13:27:45.525Z,38.20
2023-03-17T13:29:47.502Z,39.30
2023-03-17T13:31:49.391Z,38.90
2023-03-17T13:35:59.488Z,38.00
2023-03-17T13:38:13.617Z,38.50
2023-03-17T13:40:23.926Z,38.70
2023-03-17T13:42:34.276Z,38.90
2023-03-17T13:44:36.104Z,38.60
2023-03-17T13:46:37.942Z,38.40
2023-03-17T13:48:40.537Z,38.20
2023-03-17T13:50:42.322Z,38.20
2023-03-17T13:52:46.877Z,38.20
2023-03-17T13:54:50.065Z,38.10
2023-03-17T13:56:52.371Z,37.80
2023-03-17T13:59:03.818Z,37.70
2023-03-17T14:01:06.524Z,37.70
2023-03-17T14:03:08.376Z,37.70
2023-03-17T14:05:23.644Z,37.90
2023-03-17T14:07:30.767Z,38.00
2023-03-17T14:09:42.209Z,38.20
2023-03-17T14:11:45.901Z,38.60
2023-03-17T14:14:07.961Z,39.30
2023-03-17T14:16:20.180Z,39.10
2023-03-17T14:18:37.961Z,39.20
2023-03-17T14:20:40.397Z,39.70
2023-03-17T14:22:45.486Z,39.30
2023-03-17T14:24:52.160Z,39.70
2023-03-17T14:26:54.422Z,39.80
2023-03-17T14:28:59.493Z,40.10
2023-03-17T14:31:01.317Z,39.80
2023-03-17T14:33:07.459Z,40.10
2023-03-17T14:35:13.247Z,39.90
2023-03-17T14:37:15.101Z,40.40
2023-03-17T14:39:24.860Z,40.50
2023-03-17T14:41:27.563Z,40.60
2023-03-17T14:43:31.578Z,40.50
2023-03-17T14:45:39.432Z,40.50
2023-03-17T14:47:41.956Z,40.60
2023-03-17T14:49:43.789Z,40.70
2023-03-17T14:51:49.068Z,41.30
2023-03-17T14:53:51.961Z,40.70
2023-03-17T14:55:53.784Z,40.70
2023-03-17T14:57:55.589Z,40.50
2023-03-17T14:59:58.412Z,40.30
2023-03-17T15:02:01.456Z,40.40
2023-03-17T15:04:23.745Z,39.90
2023-03-17T15:06:28.870Z,39.80
2023-03-17T15:08:36.086Z,40.50
2023-03-17T15:10:41.613Z,39.30
2023-03-17T15:12:44.103Z,39.20
2023-03-17T15:14:46.415Z,39.20
2023-03-17T15:16:50.069Z,40.30
2023-03-17T15:18:57.326Z,39.50
2023-03-17T15:23:09.470Z,38.60
2023-03-17T15:25:15.050Z,39.20
2023-03-17T15:27:17.680Z,38.30
2023-03-17T15:29:20.148Z,38.90
2023-03-17T15:31:21.984Z,38.30
2023-03-17T15:33:29.874Z,38.60
2023-03-17T15:35:31.748Z,37.70
2023-03-17T15:37:34.784Z,37.50
2023-03-17T15:39:36.568Z,38.20
2023-03-17T15:41:38.431Z,37.80
2023-03-17T15:43:40.225Z,37.70
2023-03-17T15:45:42.690Z,37.60
2023-03-17T15:47:45.183Z,37.60
2023-03-17T15:49:47.422Z,37.10
2023-03-17T15:51:49.206Z,36.70
2023-03-17T15:53:50.994Z,36.20
2023-03-17T15:55:52.834Z,37.20
2023-03-17T15:57:55.669Z,36.00
2023-03-17T15:59:57.596Z,35.80
2023-03-17T16:01:59.493Z,35.70
2023-03-17T16:04:01.470Z,35.80
2023-03-17T16:06:04.782Z,35.80
2023-03-17T16:08:06.670Z,35.50
2023-03-17T16:10:15.764Z,36.20
2023-03-17T16:12:17.626Z,36.20
2023-03-17T16:14:19.431Z,36.00
2023-03-17T16:16:26.629Z,36.20
2023-03-17T16:18:32.594Z,36.50
2023-03-17T16:20:38.614Z,36.80
2023-03-17T16:22:42.447Z,36.00
2023-03-17T16:24:44.198Z,36.20
2023-03-17T16:26:46.008Z,36.20
2023-03-17T16:28:47.903Z,35.80
2023-03-17T16:30:50.285Z,36.30
2023-03-17T16:32:53.019Z,36.10
2023-03-17T16:34:54.831Z,36.10
2023-03-17T16:36:56.616Z,36.00
2023-03-17T16:38:58.454Z,36.30
2023-03-17T16:41:14.457Z,36.30
2023-03-17T16:43:25.440Z,36.70
2023-03-17T16:45:28.432Z,36.40
2023-03-17T16:47:30.189Z,36.60
2023-03-17T16:49:32.043Z,36.60
2023-03-17T16:51:33.865Z,37.10
2023-03-17T16:53:35.709Z,36.70
2023-03-17T16:55:38.220Z,36.60
2023-03-17T16:57:41.452Z,36.80
2023-03-17T16:59:43.304Z,36.80
2023-03-17T17:01:45.193Z,36.60
2023-03-17T17:03:47.108Z,36.10
2023-03-17T17:05:48.930Z,36.00
2023-03-17T17:07:51.638Z,36.20
2023-03-17T17:09:53.453Z,36.30
2023-03-17T17:11:55.218Z,36.60
2023-03-17T17:13:57.063Z,36.50
2023-03-17T17:15:59.561Z,36.40
2023-03-17T17:18:02.968Z,36.50
2023-03-17T17:20:07.755Z,36.60
2023-03-17T17:22:10.815Z,36.60
2023-03-17T17:24:13.410Z,36.50
2023-03-17T17:26:15.460Z,36.30
2023-03-17T17:28:18.356Z,35.90
2023-03-17T17:30:21.877Z,35.90
2023-03-17T17:32:23.734Z,35.90
2023-03-17T17:34:28.130Z,35.80
2023-03-17T17:36:30.334Z,36.40
2023-03-17T17:38:32.258Z,38.30
2023-03-17T17:40:34.472Z,36.60
2023-03-17T17:42:36.483Z,36.00
2023-03-17T17:44:38.811Z,37.30
2023-03-17T17:46:41.178Z,36.80
2023-03-17T17:48:43.082Z,36.40
2023-03-17T17:50:45.268Z,36.60
2023-03-17T17:52:47.916Z,36.90
2023-03-17T17:54:49.840Z,36.90
2023-03-17T17:56:51.649Z,36.60
2023-03-17T17:58:53.513Z,36.60
2023-03-17T18:00:55.459Z,36.80
2023-03-17T18:02:57.339Z,36.80
2023-03-17T18:04:59.126Z,36.70
2023-03-17T18:07:00.935Z,36.40
2023-03-17T18:09:02.855Z,36.50
2023-03-17T18:11:04.760Z,36.60
2023-03-17T18:13:06.595Z,36.20
2023-03-17T18:15:08.716Z,36.40
2023-03-17T18:17:10.466Z,36.90
2023-03-17T18:19:12.739Z,36.60
2023-03-17T18:21:15.263Z,36.50
2023-03-17T18:23:17.055Z,36.40
2023-03-17T18:25:19.066Z,36.30
2023-03-17T18:27:21.008Z,36.60
2023-03-17T18:29:22.805Z,37.00
2023-03-17T18:31:26.145Z,37.20
2023-03-17T18:33:28.087Z,37.20
2023-03-17T18:35:30.061Z,39.70
2023-03-17T18:37:32.185Z,44.80
2023-03-17T18:39:34.028Z,37.20
2023-03-17T18:41:35.876Z,37.10
2023-03-17T18:43:37.865Z,37.30
2023-03-17T18:45:39.761Z,37.20
2023-03-17T18:47:41.534Z,37.20
2023-03-17T18:49:45.444Z,37.30
2023-03-17T18:51:48.503Z,37.30
2023-03-17T18:53:50.349Z,37.40
2023-03-17T18:55:52.188Z,37.40
2023-03-17T18:57:54.043Z,37.50
2023-03-17T18:59:55.888Z,37.60
2023-03-17T19:01:57.691Z,37.60
2023-03-17T19:03:59.530Z,37.60
2023-03-17T19:06:11.963Z,37.70
2023-03-17T19:08:13.753Z,37.80
2023-03-17T19:10:15.990Z,37.80
2023-03-17T19:12:17.765Z,37.80
2023-03-17T19:14:19.589Z,37.90
2023-03-17T19:16:21.419Z,37.90
2023-03-17T19:18:23.225Z,37.80
2023-03-17T19:20:25.043Z,37.60
2023-03-17T19:22:27.098Z,37.70
2023-03-17T19:24:29.024Z,37.70
2023-03-17T19:26:30.777Z,37.70
2023-03-17T19:28:32.737Z,37.50
2023-03-17T19:30:37.153Z,37.50
2023-03-17T19:32:39.047Z,37.60
2023-03-17T19:34:40.920Z,37.70
2023-03-17T19:36:43.512Z,37.70
2023-03-17T19:38:45.315Z,37.70
2023-03-17T19:40:47.211Z,37.70
2023-03-17T19:42:49.063Z,37.70
2023-03-17T19:44:50.829Z,37.70
2023-03-17T19:46:52.730Z,37.80
2023-03-17T19:48:54.649Z,37.80
2023-03-17T19:50:56.521Z,37.80
2023-03-17T19:52:58.395Z,37.80
2023-03-17T19:55:00.205Z,37.80
2023-03-17T19:57:02.016Z,37.80
2023-03-17T19:59:04.200Z,37.80
2023-03-17T20:01:06.130Z,37.90
2023-03-17T20:03:07.949Z,37.90
2023-03-17T20:05:09.901Z,37.90
2023-03-17T20:07:11.841Z,38.00
2023-03-17T20:09:14.119Z,38.00
2023-03-17T20:11:15.925Z,38.00
2023-03-17T20:13:17.802Z,38.00
2023-03-17T20:15:19.620Z,38.00
2023-03-17T20:17:21.583Z,38.00
2023-03-17T20:19:23.346Z,38.00
2023-03-17T20:21:25.382Z,38.10
2023-03-17T20:23:27.292Z,38.10
2023-03-17T20:25:29.101Z,38.10
2023-03-17T20:27:30.914Z,38.20
2023-03-17T20:29:32.746Z,38.10
2023-03-17T20:31:34.828Z,38.20
2023-03-17T20:33:36.701Z,38.20
2023-03-17T20:35:39.505Z,38.20
2023-03-17T20:37:41.359Z,38.20
2023-03-17T20:39:43.150Z,38.20
2023-03-17T20:41:45.253Z,38.20
2023-03-17T20:43:47.197Z,38.20
2023-03-17T20:45:50.345Z,38.20
2023-03-17T20:47:52.198Z,38.20
2023-03-17T20:49:53.994Z,38.30
2023-03-17T20:51:55.920Z,38.30
2023-03-17T20:53:58.190Z,38.30
2023-03-17T20:56:00.035Z,38.30
2023-03-17T20:58:01.842Z,38.30
2023-03-17T21:00:04.547Z,38.30
2023-03-17T21:02:06.491Z,38.30
2023-03-17T21:04:08.305Z,38.30
2023-03-17T21:06:10.630Z,38.30
2023-03-17T21:08:12.501Z,38.30
2023-03-17T21:10:14.542Z,38.30
2023-03-17T21:12:17.516Z,38.30
2023-03-17T21:14:19.348Z,39.00
2023-03-17T21:16:22.670Z,38.40
2023-03-17T21:18:24.820Z,38.30
2023-03-17T21:20:26.657Z,38.40
2023-03-17T21:22:28.558Z,38.40
2023-03-17T21:24:32.350Z,38.40
2023-03-17T21:26:34.176Z,38.40
2023-03-17T21:28:36.414Z,38.40
2023-03-17T21:30:38.266Z,38.40
2023-03-17T21:32:40.892Z,38.50
2023-03-17T21:34:42.809Z,38.50
2023-03-17T21:36:44.819Z,39.00
2023-03-17T21:38:46.717Z,38.50
2023-03-17T21:40:48.573Z,38.40
2023-03-17T21:42:50.482Z,38.50
2023-03-17T21:44:52.374Z,38.50
2023-03-17T21:46:54.271Z,38.50
2023-03-17T21:48:56.104Z,38.50
2023-03-17T21:50:57.918Z,38.50
2023-03-17T21:52:59.712Z,38.50
2023-03-17T21:55:01.512Z,38.60
2023-03-17T21:57:03.969Z,39.10
2023-03-17T21:59:05.997Z,38.60
2023-03-17T22:01:07.967Z,38.60
2023-03-17T22:03:09.918Z,38.60
2023-03-17T22:05:11.804Z,38.60
2023-03-17T22:07:13.577Z,38.60
2023-03-17T22:09:17.044Z,38.60
2023-03-17T22:11:20.620Z,38.60
2023-03-17T22:13:22.498Z,38.60
2023-03-17T22:15:24.332Z,38.60
2023-03-17T22:17:26.177Z,38.60
2023-03-17T22:19:28.085Z,38.60
2023-03-17T22:21:29.837Z,38.60
2023-03-17T22:23:31.712Z,38.60
2023-03-17T22:25:33.518Z,38.70
2023-03-17T22:27:35.354Z,38.70
2023-03-17T22:29:37.264Z,38.70
2023-03-17T22:31:39.534Z,39.30
2023-03-17T22:33:41.419Z,38.70
2023-03-17T22:35:43.285Z,38.70
2023-03-17T22:37:45.197Z,38.70
2023-03-17T22:39:46.946Z,38.80
2023-03-17T22:41:48.763Z,38.70
2023-03-17T22:43:50.807Z,38.70
2023-03-17T22:45:52.661Z,38.60
2023-03-17T22:47:54.642Z,38.70
2023-03-17T22:49:56.442Z,38.70
2023-03-17T22:51:58.232Z,38.70
2023-03-17T22:54:01.026Z,38.60
2023-03-17T22:56:02.912Z,38.70
2023-03-17T22:58:04.781Z,38.70
2023-03-17T23:00:14.279Z,38.70
2023-03-17T23:02:18.453Z,38.70
2023-03-17T23:04:20.338Z,38.70
2023-03-17T23:06:22.657Z,38.70
2023-03-17T23:08:25.685Z,38.70
2023-03-17T23:10:27.744Z,38.70
2023-03-17T23:12:29.614Z,38.70
2023-03-17T23:14:31.484Z,38.70
2023-03-17T23:16:33.292Z,38.70
2023-03-17T23:18:35.248Z,38.70
2023-03-17T23:20:38.272Z,38.80
2023-03-17T23:22:40.066Z,38.70
2023-03-17T23:24:41.888Z,38.80
2023-03-17T23:26:43.769Z,38.80
2023-03-17T23:28:45.647Z,38.70
2023-03-17T23:30:47.553Z,38.80
2023-03-17T23:32:49.507Z,38.80
2023-03-17T23:34:51.357Z,38.80
2023-03-17T23:36:53.193Z,38.90
2023-03-17T23:38:55.020Z,38.80
2023-03-17T23:40:57.195Z,38.80
2023-03-17T23:42:59.052Z,38.80
2023-03-17T23:45:01.106Z,38.90
2023-03-17T23:47:02.920Z,38.90
2023-03-17T23:49:05.201Z,38.90
2023-03-17T23:51:06.993Z,38.90
2023-03-17T23:53:09.224Z,38.90
2023-03-17T23:55:11.842Z,38.90
2023-03-17T23:57:13.713Z,38.90
2023-03-17T23:59:15.547Z,38.90
